sensor_id;sensor_type;location;lat;lon;timestamp;P1;durP1;ratioP1;P2;durP2;ratioP2
21101;SDS011;10709;49.006;12.100;2023-04-16T00:01:23;8.43;;;5.80;;
21101;SDS011;10709;49.006;12.100;2023-04-16T00:03:50;7.40;;;6.13;;
21101;SDS011;10709;49.006;12.100;2023-04-16T00:06:17;9.87;;;7.27;;
21101;SDS011;10709;49.006;12.100;2023-04-16T00:08:43;8.07;;;6.67;;
21101;SDS011;10709;49.006;12.100;2023-04-16T00:11:10;7.90;;;6.67;;
21101;SDS011;10709;49.006;12.100;2023-04-16T00:13:36;8.37;;;6.37;;
21101;SDS011;10709;49.006;12.100;2023-04-16T00:16:03;8.83;;;7.00;;
21101;SDS011;10709;49.006;12.100;2023-04-16T00:18:30;8.53;;;6.80;;
21101;SDS011;10709;49.006;12.100;2023-04-16T00:20:57;7.37;;;5.90;;
21101;SDS011;10709;49.006;12.100;2023-04-16T00:23:24;9.13;;;6.70;;
21101;SDS011;10709;49.006;12.100;2023-04-16T00:25:51;6.83;;;5.90;;
21101;SDS011;10709;49.006;12.100;2023-04-16T00:28:19;7.63;;;6.50;;
21101;SDS011;10709;49.006;12.100;2023-04-16T00:30:45;7.90;;;6.73;;
21101;SDS011;10709;49.006;12.100;2023-04-16T00:33:12;8.73;;;6.63;;
21101;SDS011;10709;49.006;12.100;2023-04-16T00:35:38;9.80;;;7.47;;
21101;SDS011;10709;49.006;12.100;2023-04-16T00:38:05;7.90;;;6.43;;
21101;SDS011;10709;49.006;12.100;2023-04-16T00:40:31;7.03;;;6.17;;
21101;SDS011;10709;49.006;12.100;2023-04-16T00:42:57;8.10;;;6.57;;
21101;SDS011;10709;49.006;12.100;2023-04-16T00:45:24;9.53;;;7.97;;
21101;SDS011;10709;49.006;12.100;2023-04-16T00:47:50;10.00;;;8.37;;
21101;SDS011;10709;49.006;12.100;2023-04-16T00:50:17;11.23;;;8.53;;
21101;SDS011;10709;49.006;12.100;2023-04-16T00:52:45;9.70;;;7.93;;
21101;SDS011;10709;49.006;12.100;2023-04-16T00:55:15;10.90;;;7.97;;
21101;SDS011;10709;49.006;12.100;2023-04-16T00:57:44;9.73;;;7.70;;
21101;SDS011;10709;49.006;12.100;2023-04-16T01:00:14;9.13;;;7.47;;
21101;SDS011;10709;49.006;12.100;2023-04-16T01:02:41;9.23;;;7.30;;
21101;SDS011;10709;49.006;12.100;2023-04-16T01:05:08;10.27;;;7.37;;
21101;SDS011;10709;49.006;12.100;2023-04-16T01:07:34;9.73;;;7.17;;
21101;SDS011;10709;49.006;12.100;2023-04-16T01:10:01;9.23;;;7.60;;
21101;SDS011;10709;49.006;12.100;2023-04-16T01:12:28;8.83;;;7.40;;
21101;SDS011;10709;49.006;12.100;2023-04-16T01:14:54;8.67;;;7.13;;
21101;SDS011;10709;49.006;12.100;2023-04-16T01:17:21;8.53;;;6.97;;
21101;SDS011;10709;49.006;12.100;2023-04-16T01:19:47;10.20;;;7.30;;
21101;SDS011;10709;49.006;12.100;2023-04-16T01:22:14;8.03;;;6.60;;
21101;SDS011;10709;49.006;12.100;2023-04-16T01:24:41;8.40;;;6.97;;
21101;SDS011;10709;49.006;12.100;2023-04-16T01:27:07;10.03;;;7.47;;
21101;SDS011;10709;49.006;12.100;2023-04-16T01:29:34;9.07;;;7.30;;
21101;SDS011;10709;49.006;12.100;2023-04-16T01:32:00;8.73;;;7.20;;
21101;SDS011;10709;49.006;12.100;2023-04-16T01:34:27;9.30;;;7.53;;
21101;SDS011;10709;49.006;12.100;2023-04-16T01:36:53;8.50;;;7.37;;
21101;SDS011;10709;49.006;12.100;2023-04-16T01:39:20;6.97;;;6.10;;
21101;SDS011;10709;49.006;12.100;2023-04-16T01:41:47;7.77;;;6.40;;
21101;SDS011;10709;49.006;12.100;2023-04-16T01:44:13;8.20;;;6.07;;
21101;SDS011;10709;49.006;12.100;2023-04-16T01:46:40;6.97;;;6.20;;
21101;SDS011;10709;49.006;12.100;2023-04-16T01:49:08;7.93;;;6.23;;
21101;SDS011;10709;49.006;12.100;2023-04-16T01:51:34;7.30;;;6.37;;
21101;SDS011;10709;49.006;12.100;2023-04-16T01:54:01;8.33;;;7.03;;
21101;SDS011;10709;49.006;12.100;2023-04-16T01:56:27;7.47;;;6.10;;
21101;SDS011;10709;49.006;12.100;2023-04-16T01:58:54;6.20;;;5.53;;
21101;SDS011;10709;49.006;12.100;2023-04-16T02:01:21;5.40;;;4.90;;
21101;SDS011;10709;49.006;12.100;2023-04-16T02:03:48;7.23;;;5.87;;
21101;SDS011;10709;49.006;12.100;2023-04-16T02:06:16;6.00;;;4.80;;
21101;SDS011;10709;49.006;12.100;2023-04-16T02:08:42;6.77;;;5.60;;
21101;SDS011;10709;49.006;12.100;2023-04-16T02:11:09;5.97;;;5.20;;
21101;SDS011;10709;49.006;12.100;2023-04-16T02:13:36;5.27;;;4.73;;
21101;SDS011;10709;49.006;12.100;2023-04-16T02:16:02;5.60;;;4.80;;
21101;SDS011;10709;49.006;12.100;2023-04-16T02:18:29;5.13;;;4.63;;
21101;SDS011;10709;49.006;12.100;2023-04-16T02:20:57;5.07;;;4.23;;
21101;SDS011;10709;49.006;12.100;2023-04-16T02:23:25;6.10;;;4.73;;
21101;SDS011;10709;49.006;12.100;2023-04-16T02:25:51;5.30;;;4.80;;
21101;SDS011;10709;49.006;12.100;2023-04-16T02:28:18;5.33;;;4.60;;
21101;SDS011;10709;49.006;12.100;2023-04-16T02:30:44;5.60;;;4.87;;
21101;SDS011;10709;49.006;12.100;2023-04-16T02:33:11;5.07;;;4.43;;
21101;SDS011;10709;49.006;12.100;2023-04-16T02:35:38;5.20;;;4.60;;
21101;SDS011;10709;49.006;12.100;2023-04-16T02:38:05;4.93;;;4.43;;
21101;SDS011;10709;49.006;12.100;2023-04-16T02:40:33;5.43;;;4.90;;
21101;SDS011;10709;49.006;12.100;2023-04-16T02:42:59;4.60;;;4.10;;
21101;SDS011;10709;49.006;12.100;2023-04-16T02:45:26;4.50;;;4.10;;
21101;SDS011;10709;49.006;12.100;2023-04-16T02:47:52;4.50;;;4.10;;
21101;SDS011;10709;49.006;12.100;2023-04-16T02:50:19;6.30;;;5.10;;
21101;SDS011;10709;49.006;12.100;2023-04-16T02:52:45;4.40;;;4.00;;
21101;SDS011;10709;49.006;12.100;2023-04-16T02:55:13;4.33;;;3.93;;
21101;SDS011;10709;49.006;12.100;2023-04-16T02:57:40;4.20;;;3.80;;
21101;SDS011;10709;49.006;12.100;2023-04-16T03:00:07;4.20;;;3.80;;
21101;SDS011;10709;49.006;12.100;2023-04-16T03:02:34;4.33;;;3.90;;
21101;SDS011;10709;49.006;12.100;2023-04-16T03:05:02;4.17;;;3.77;;
21101;SDS011;10709;49.006;12.100;2023-04-16T03:07:28;4.17;;;3.77;;
21101;SDS011;10709;49.006;12.100;2023-04-16T03:09:55;4.20;;;3.80;;
21101;SDS011;10709;49.006;12.100;2023-04-16T03:12:22;4.57;;;3.97;;
21101;SDS011;10709;49.006;12.100;2023-04-16T03:14:49;4.20;;;3.80;;
21101;SDS011;10709;49.006;12.100;2023-04-16T03:17:16;4.20;;;3.80;;
21101;SDS011;10709;49.006;12.100;2023-04-16T03:19:43;3.80;;;3.40;;
21101;SDS011;10709;49.006;12.100;2023-04-16T03:22:09;3.80;;;3.20;;
21101;SDS011;10709;49.006;12.100;2023-04-16T03:24:36;5.63;;;4.07;;
21101;SDS011;10709;49.006;12.100;2023-04-16T03:27:03;3.90;;;3.43;;
21101;SDS011;10709;49.006;12.100;2023-04-16T03:29:29;3.70;;;3.33;;
21101;SDS011;10709;49.006;12.100;2023-04-16T03:31:56;3.50;;;3.20;;
21101;SDS011;10709;49.006;12.100;2023-04-16T03:34:22;4.10;;;3.60;;
21101;SDS011;10709;49.006;12.100;2023-04-16T03:36:49;3.50;;;3.17;;
21101;SDS011;10709;49.006;12.100;2023-04-16T03:39:15;3.30;;;3.00;;
21101;SDS011;10709;49.006;12.100;2023-04-16T03:41:42;3.53;;;3.20;;
21101;SDS011;10709;49.006;12.100;2023-04-16T03:44:08;3.30;;;2.90;;
21101;SDS011;10709;49.006;12.100;2023-04-16T03:46:35;3.20;;;2.90;;
21101;SDS011;10709;49.006;12.100;2023-04-16T03:49:02;5.17;;;3.40;;
21101;SDS011;10709;49.006;12.100;2023-04-16T03:51:28;5.40;;;3.47;;
21101;SDS011;10709;49.006;12.100;2023-04-16T03:53:54;4.20;;;3.43;;
21101;SDS011;10709;49.006;12.100;2023-04-16T03:56:21;3.50;;;3.20;;
21101;SDS011;10709;49.006;12.100;2023-04-16T03:58:47;4.80;;;3.87;;
21101;SDS011;10709;49.006;12.100;2023-04-16T04:01:14;3.93;;;3.53;;
21101;SDS011;10709;49.006;12.100;2023-04-16T04:03:40;4.50;;;3.97;;
21101;SDS011;10709;49.006;12.100;2023-04-16T04:06:07;4.13;;;3.47;;
21101;SDS011;10709;49.006;12.100;2023-04-16T04:08:34;3.87;;;3.47;;
21101;SDS011;10709;49.006;12.100;2023-04-16T04:11:01;4.67;;;3.50;;
21101;SDS011;10709;49.006;12.100;2023-04-16T04:13:27;3.67;;;3.27;;
21101;SDS011;10709;49.006;12.100;2023-04-16T04:15:54;4.03;;;3.03;;
21101;SDS011;10709;49.006;12.100;2023-04-16T04:18:20;3.60;;;3.30;;
21101;SDS011;10709;49.006;12.100;2023-04-16T04:20:47;3.63;;;3.33;;
21101;SDS011;10709;49.006;12.100;2023-04-16T04:23:14;3.77;;;3.37;;
21101;SDS011;10709;49.006;12.100;2023-04-16T04:25:40;3.87;;;3.47;;
21101;SDS011;10709;49.006;12.100;2023-04-16T04:28:07;3.47;;;3.17;;
21101;SDS011;10709;49.006;12.100;2023-04-16T04:30:33;3.87;;;3.23;;
21101;SDS011;10709;49.006;12.100;2023-04-16T04:33:01;3.30;;;3.00;;
21101;SDS011;10709;49.006;12.100;2023-04-16T04:35:28;3.43;;;2.57;;
21101;SDS011;10709;49.006;12.100;2023-04-16T04:37:54;4.67;;;3.27;;
21101;SDS011;10709;49.006;12.100;2023-04-16T04:40:20;3.20;;;2.90;;
21101;SDS011;10709;49.006;12.100;2023-04-16T04:42:47;3.17;;;2.87;;
21101;SDS011;10709;49.006;12.100;2023-04-16T04:45:14;3.00;;;2.70;;
21101;SDS011;10709;49.006;12.100;2023-04-16T04:47:41;3.20;;;2.90;;
21101;SDS011;10709;49.006;12.100;2023-04-16T04:50:07;3.63;;;2.80;;
21101;SDS011;10709;49.006;12.100;2023-04-16T04:52:34;3.63;;;3.27;;
21101;SDS011;10709;49.006;12.100;2023-04-16T04:55:00;3.10;;;2.80;;
21101;SDS011;10709;49.006;12.100;2023-04-16T04:57:27;4.60;;;3.40;;
21101;SDS011;10709;49.006;12.100;2023-04-16T04:59:53;6.43;;;3.27;;
21101;SDS011;10709;49.006;12.100;2023-04-16T05:02:20;3.83;;;3.30;;
21101;SDS011;10709;49.006;12.100;2023-04-16T05:04:46;3.97;;;3.43;;
21101;SDS011;10709;49.006;12.100;2023-04-16T05:07:13;3.37;;;3.07;;
21101;SDS011;10709;49.006;12.100;2023-04-16T05:09:39;3.90;;;3.40;;
21101;SDS011;10709;49.006;12.100;2023-04-16T05:12:06;3.20;;;2.90;;
21101;SDS011;10709;49.006;12.100;2023-04-16T05:14:32;4.27;;;3.87;;
21101;SDS011;10709;49.006;12.100;2023-04-16T05:16:59;3.43;;;3.13;;
21101;SDS011;10709;49.006;12.100;2023-04-16T05:19:26;3.70;;;3.40;;
21101;SDS011;10709;49.006;12.100;2023-04-16T05:21:52;3.37;;;3.07;;
21101;SDS011;10709;49.006;12.100;2023-04-16T05:24:19;4.93;;;3.30;;
21101;SDS011;10709;49.006;12.100;2023-04-16T05:26:46;3.30;;;2.97;;
21101;SDS011;10709;49.006;12.100;2023-04-16T05:29:12;3.83;;;3.37;;
21101;SDS011;10709;49.006;12.100;2023-04-16T05:31:38;4.00;;;3.60;;
21101;SDS011;10709;49.006;12.100;2023-04-16T05:34:05;4.30;;;3.73;;
21101;SDS011;10709;49.006;12.100;2023-04-16T05:36:31;3.40;;;3.03;;
21101;SDS011;10709;49.006;12.100;2023-04-16T05:38:58;3.53;;;3.23;;
21101;SDS011;10709;49.006;12.100;2023-04-16T05:41:24;4.00;;;3.30;;
21101;SDS011;10709;49.006;12.100;2023-04-16T05:43:50;3.30;;;3.00;;
21101;SDS011;10709;49.006;12.100;2023-04-16T05:46:17;3.90;;;3.50;;
21101;SDS011;10709;49.006;12.100;2023-04-16T05:48:43;3.80;;;3.40;;
21101;SDS011;10709;49.006;12.100;2023-04-16T05:51:10;3.13;;;2.83;;
21101;SDS011;10709;49.006;12.100;2023-04-16T05:53:37;4.00;;;3.47;;
21101;SDS011;10709;49.006;12.100;2023-04-16T05:56:03;3.30;;;3.00;;
21101;SDS011;10709;49.006;12.100;2023-04-16T05:58:30;4.20;;;3.80;;
21101;SDS011;10709;49.006;12.100;2023-04-16T06:00:57;4.93;;;4.00;;
21101;SDS011;10709;49.006;12.100;2023-04-16T06:03:24;4.50;;;4.03;;
21101;SDS011;10709;49.006;12.100;2023-04-16T06:05:50;4.03;;;3.63;;
21101;SDS011;10709;49.006;12.100;2023-04-16T06:08:17;3.73;;;3.43;;
21101;SDS011;10709;49.006;12.100;2023-04-16T06:10:47;4.07;;;3.67;;
21101;SDS011;10709;49.006;12.100;2023-04-16T06:13:14;3.90;;;3.60;;
21101;SDS011;10709;49.006;12.100;2023-04-16T06:15:41;3.97;;;3.57;;
21101;SDS011;10709;49.006;12.100;2023-04-16T06:18:07;4.07;;;3.67;;
21101;SDS011;10709;49.006;12.100;2023-04-16T06:20:34;3.77;;;3.40;;
21101;SDS011;10709;49.006;12.100;2023-04-16T06:23:01;3.83;;;3.17;;
21101;SDS011;10709;49.006;12.100;2023-04-16T06:25:27;3.70;;;3.40;;
21101;SDS011;10709;49.006;12.100;2023-04-16T06:27:54;4.77;;;4.10;;
21101;SDS011;10709;49.006;12.100;2023-04-16T06:30:20;4.70;;;3.97;;
21101;SDS011;10709;49.006;12.100;2023-04-16T06:32:47;4.40;;;3.80;;
21101;SDS011;10709;49.006;12.100;2023-04-16T06:35:14;4.47;;;4.03;;
21101;SDS011;10709;49.006;12.100;2023-04-16T06:37:41;3.60;;;3.30;;
21101;SDS011;10709;49.006;12.100;2023-04-16T06:40:08;3.50;;;3.20;;
21101;SDS011;10709;49.006;12.100;2023-04-16T06:42:34;3.40;;;3.10;;
21101;SDS011;10709;49.006;12.100;2023-04-16T06:45:01;5.00;;;4.17;;
21101;SDS011;10709;49.006;12.100;2023-04-16T06:47:28;3.87;;;3.50;;
21101;SDS011;10709;49.006;12.100;2023-04-16T06:49:54;3.80;;;3.40;;
21101;SDS011;10709;49.006;12.100;2023-04-16T06:52:21;3.10;;;2.90;;
21101;SDS011;10709;49.006;12.100;2023-04-16T06:54:48;3.40;;;3.10;;
21101;SDS011;10709;49.006;12.100;2023-04-16T06:57:14;3.60;;;3.17;;
21101;SDS011;10709;49.006;12.100;2023-04-16T06:59:42;2.60;;;2.40;;
21101;SDS011;10709;49.006;12.100;2023-04-16T07:02:11;2.37;;;2.17;;
21101;SDS011;10709;49.006;12.100;2023-04-16T07:04:38;2.80;;;2.60;;
21101;SDS011;10709;49.006;12.100;2023-04-16T07:07:04;3.30;;;3.00;;
21101;SDS011;10709;49.006;12.100;2023-04-16T07:09:31;3.50;;;3.20;;
21101;SDS011;10709;49.006;12.100;2023-04-16T07:11:57;4.03;;;3.60;;
21101;SDS011;10709;49.006;12.100;2023-04-16T07:14:24;3.63;;;3.33;;
21101;SDS011;10709;49.006;12.100;2023-04-16T07:16:50;4.20;;;3.80;;
21101;SDS011;10709;49.006;12.100;2023-04-16T07:19:17;3.93;;;3.50;;
21101;SDS011;10709;49.006;12.100;2023-04-16T07:21:43;3.33;;;3.03;;
21101;SDS011;10709;49.006;12.100;2023-04-16T07:24:10;3.53;;;3.20;;
21101;SDS011;10709;49.006;12.100;2023-04-16T07:26:36;4.00;;;3.30;;
21101;SDS011;10709;49.006;12.100;2023-04-16T07:29:03;3.80;;;3.27;;
21101;SDS011;10709;49.006;12.100;2023-04-16T07:31:29;3.30;;;3.00;;
21101;SDS011;10709;49.006;12.100;2023-04-16T07:33:57;3.53;;;3.20;;
21101;SDS011;10709;49.006;12.100;2023-04-16T07:36:23;4.07;;;3.23;;
21101;SDS011;10709;49.006;12.100;2023-04-16T07:38:50;3.67;;;3.00;;
21101;SDS011;10709;49.006;12.100;2023-04-16T07:41:16;2.60;;;2.40;;
21101;SDS011;10709;49.006;12.100;2023-04-16T07:43:43;2.70;;;2.33;;
21101;SDS011;10709;49.006;12.100;2023-04-16T07:46:09;2.27;;;2.07;;
21101;SDS011;10709;49.006;12.100;2023-04-16T07:48:36;2.50;;;2.30;;
21101;SDS011;10709;49.006;12.100;2023-04-16T07:51:02;2.90;;;2.60;;
21101;SDS011;10709;49.006;12.100;2023-04-16T07:53:28;2.67;;;2.40;;
21101;SDS011;10709;49.006;12.100;2023-04-16T07:55:55;3.60;;;2.47;;
21101;SDS011;10709;49.006;12.100;2023-04-16T07:58:21;2.43;;;2.23;;
21101;SDS011;10709;49.006;12.100;2023-04-16T08:00:48;4.03;;;2.47;;
21101;SDS011;10709;49.006;12.100;2023-04-16T08:03:16;2.50;;;2.30;;
21101;SDS011;10709;49.006;12.100;2023-04-16T08:05:44;2.47;;;2.00;;
21101;SDS011;10709;49.006;12.100;2023-04-16T08:08:10;2.60;;;2.17;;
21101;SDS011;10709;49.006;12.100;2023-04-16T08:10:37;2.43;;;2.23;;
21101;SDS011;10709;49.006;12.100;2023-04-16T08:13:04;2.40;;;2.20;;
21101;SDS011;10709;49.006;12.100;2023-04-16T08:15:31;2.10;;;1.90;;
21101;SDS011;10709;49.006;12.100;2023-04-16T08:17:57;2.50;;;2.30;;
21101;SDS011;10709;49.006;12.100;2023-04-16T08:20:24;3.20;;;2.90;;
21101;SDS011;10709;49.006;12.100;2023-04-16T08:22:52;2.87;;;2.60;;
21101;SDS011;10709;49.006;12.100;2023-04-16T08:25:19;2.93;;;2.40;;
21101;SDS011;10709;49.006;12.100;2023-04-16T08:27:47;2.50;;;2.30;;
21101;SDS011;10709;49.006;12.100;2023-04-16T08:30:14;2.60;;;2.40;;
21101;SDS011;10709;49.006;12.100;2023-04-16T08:32:42;2.47;;;2.27;;
21101;SDS011;10709;49.006;12.100;2023-04-16T08:35:08;2.40;;;2.20;;
21101;SDS011;10709;49.006;12.100;2023-04-16T08:37:35;2.93;;;2.23;;
21101;SDS011;10709;49.006;12.100;2023-04-16T08:40:01;2.50;;;2.10;;
21101;SDS011;10709;49.006;12.100;2023-04-16T08:42:32;2.53;;;1.70;;
21101;SDS011;10709;49.006;12.100;2023-04-16T08:45:06;2.93;;;2.33;;
21101;SDS011;10709;49.006;12.100;2023-04-16T08:47:34;2.20;;;2.00;;
21101;SDS011;10709;49.006;12.100;2023-04-16T08:50:04;2.73;;;2.23;;
21101;SDS011;10709;49.006;12.100;2023-04-16T08:52:31;2.10;;;1.90;;
21101;SDS011;10709;49.006;12.100;2023-04-16T08:55:05;2.53;;;2.23;;
21101;SDS011;10709;49.006;12.100;2023-04-16T08:57:47;2.07;;;1.90;;
21101;SDS011;10709;49.006;12.100;2023-04-16T09:00:16;2.20;;;2.00;;
21101;SDS011;10709;49.006;12.100;2023-04-16T09:02:44;2.10;;;1.90;;
21101;SDS011;10709;49.006;12.100;2023-04-16T09:05:13;2.33;;;2.13;;
21101;SDS011;10709;49.006;12.100;2023-04-16T09:07:44;2.53;;;2.30;;
21101;SDS011;10709;49.006;12.100;2023-04-16T09:10:12;2.10;;;1.93;;
21101;SDS011;10709;49.006;12.100;2023-04-16T09:12:43;3.17;;;2.10;;
21101;SDS011;10709;49.006;12.100;2023-04-16T09:15:10;2.93;;;1.80;;
21101;SDS011;10709;49.006;12.100;2023-04-16T09:17:37;2.00;;;1.80;;
21101;SDS011;10709;49.006;12.100;2023-04-16T09:20:06;1.70;;;1.60;;
21101;SDS011;10709;49.006;12.100;2023-04-16T09:22:34;1.93;;;1.70;;
21101;SDS011;10709;49.006;12.100;2023-04-16T09:25:01;1.77;;;1.63;;
21101;SDS011;10709;49.006;12.100;2023-04-16T09:27:27;1.97;;;1.80;;
21101;SDS011;10709;49.006;12.100;2023-04-16T09:29:55;2.00;;;1.80;;
21101;SDS011;10709;49.006;12.100;2023-04-16T09:32:25;1.77;;;1.67;;
21101;SDS011;10709;49.006;12.100;2023-04-16T09:34:54;2.17;;;1.97;;
21101;SDS011;10709;49.006;12.100;2023-04-16T09:37:22;2.47;;;2.20;;
21101;SDS011;10709;49.006;12.100;2023-04-16T09:39:56;1.83;;;1.73;;
21101;SDS011;10709;49.006;12.100;2023-04-16T09:42:24;2.73;;;1.80;;
21101;SDS011;10709;49.006;12.100;2023-04-16T09:44:53;2.30;;;2.10;;
21101;SDS011;10709;49.006;12.100;2023-04-16T09:47:25;1.60;;;1.50;;
21101;SDS011;10709;49.006;12.100;2023-04-16T09:50:04;2.80;;;1.83;;
21101;SDS011;10709;49.006;12.100;2023-04-16T09:52:34;2.30;;;1.70;;
21101;SDS011;10709;49.006;12.100;2023-04-16T09:55:02;1.43;;;1.33;;
21101;SDS011;10709;49.006;12.100;2023-04-16T09:57:28;1.33;;;1.23;;
21101;SDS011;10709;49.006;12.100;2023-04-16T10:00:00;1.60;;;1.50;;
21101;SDS011;10709;49.006;12.100;2023-04-16T10:02:29;1.90;;;1.70;;
21101;SDS011;10709;49.006;12.100;2023-04-16T10:04:57;1.57;;;1.47;;
21101;SDS011;10709;49.006;12.100;2023-04-16T10:07:27;1.73;;;1.43;;
21101;SDS011;10709;49.006;12.100;2023-04-16T10:09:54;3.27;;;1.93;;
21101;SDS011;10709;49.006;12.100;2023-04-16T10:12:21;2.53;;;1.70;;
21101;SDS011;10709;49.006;12.100;2023-04-16T10:14:47;1.73;;;1.63;;
21101;SDS011;10709;49.006;12.100;2023-04-16T10:17:16;1.60;;;1.50;;
21101;SDS011;10709;49.006;12.100;2023-04-16T10:19:44;2.00;;;1.80;;
21101;SDS011;10709;49.006;12.100;2023-04-16T10:22:11;2.20;;;1.90;;
21101;SDS011;10709;49.006;12.100;2023-04-16T10:24:37;2.10;;;1.70;;
21101;SDS011;10709;49.006;12.100;2023-04-16T10:27:06;2.07;;;1.87;;
21101;SDS011;10709;49.006;12.100;2023-04-16T10:29:32;3.00;;;1.80;;
21101;SDS011;10709;49.006;12.100;2023-04-16T10:32:00;1.87;;;1.60;;
21101;SDS011;10709;49.006;12.100;2023-04-16T10:34:28;2.27;;;2.00;;
21101;SDS011;10709;49.006;12.100;2023-04-16T10:36:56;2.47;;;2.20;;
21101;SDS011;10709;49.006;12.100;2023-04-16T10:39:23;2.27;;;2.07;;
21101;SDS011;10709;49.006;12.100;2023-04-16T10:42:08;2.43;;;2.10;;
21101;SDS011;10709;49.006;12.100;2023-04-16T10:44:35;2.80;;;2.10;;
21101;SDS011;10709;49.006;12.100;2023-04-16T10:47:05;2.20;;;2.00;;
21101;SDS011;10709;49.006;12.100;2023-04-16T10:49:36;2.03;;;1.93;;
21101;SDS011;10709;49.006;12.100;2023-04-16T10:54:40;2.20;;;2.00;;
21101;SDS011;10709;49.006;12.100;2023-04-16T10:57:07;2.20;;;2.00;;
21101;SDS011;10709;49.006;12.100;2023-04-16T10:59:35;2.10;;;1.87;;
21101;SDS011;10709;49.006;12.100;2023-04-16T11:02:08;2.20;;;2.00;;
21101;SDS011;10709;49.006;12.100;2023-04-16T11:04:40;1.97;;;1.83;;
21101;SDS011;10709;49.006;12.100;2023-04-16T11:12:34;2.00;;;1.80;;
21101;SDS011;10709;49.006;12.100;2023-04-16T11:15:13;2.30;;;2.10;;
21101;SDS011;10709;49.006;12.100;2023-04-16T11:17:42;2.53;;;2.10;;
21101;SDS011;10709;49.006;12.100;2023-04-16T11:20:13;2.40;;;2.10;;
21101;SDS011;10709;49.006;12.100;2023-04-16T11:22:46;2.60;;;2.40;;
21101;SDS011;10709;49.006;12.100;2023-04-16T11:27:50;2.83;;;2.20;;
21101;SDS011;10709;49.006;12.100;2023-04-16T11:30:18;2.10;;;1.90;;
21101;SDS011;10709;49.006;12.100;2023-04-16T11:32:52;2.27;;;1.90;;
21101;SDS011;10709;49.006;12.100;2023-04-16T11:35:19;2.30;;;2.10;;
21101;SDS011;10709;49.006;12.100;2023-04-16T11:37:46;2.30;;;1.80;;
21101;SDS011;10709;49.006;12.100;2023-04-16T11:40:15;3.53;;;1.80;;
21101;SDS011;10709;49.006;12.100;2023-04-16T11:42:42;1.90;;;1.70;;
21101;SDS011;10709;49.006;12.100;2023-04-16T11:45:09;2.20;;;2.00;;
21101;SDS011;10709;49.006;12.100;2023-04-16T11:47:43;2.37;;;2.17;;
21101;SDS011;10709;49.006;12.100;2023-04-16T11:52:49;2.53;;;2.33;;
21101;SDS011;10709;49.006;12.100;2023-04-16T11:55:17;2.60;;;2.30;;
21101;SDS011;10709;49.006;12.100;2023-04-16T11:57:44;2.50;;;2.30;;
21101;SDS011;10709;49.006;12.100;2023-04-16T12:00:11;2.70;;;2.50;;
21101;SDS011;10709;49.006;12.100;2023-04-16T12:02:48;2.70;;;2.50;;
21101;SDS011;10709;49.006;12.100;2023-04-16T12:05:54;3.03;;;2.67;;
21101;SDS011;10709;49.006;12.100;2023-04-16T12:08:18;2.53;;;2.10;;
21101;SDS011;10709;49.006;12.100;2023-04-16T12:10:54;2.63;;;2.40;;
21101;SDS011;10709;49.006;12.100;2023-04-16T12:13:21;4.87;;;2.50;;
21101;SDS011;10709;49.006;12.100;2023-04-16T12:15:49;2.70;;;2.50;;
21101;SDS011;10709;49.006;12.100;2023-04-16T12:18:16;2.43;;;2.10;;
21101;SDS011;10709;49.006;12.100;2023-04-16T12:20:45;2.50;;;2.30;;
21101;SDS011;10709;49.006;12.100;2023-04-16T12:23:26;2.50;;;2.30;;
21101;SDS011;10709;49.006;12.100;2023-04-16T12:25:54;2.60;;;2.40;;
21101;SDS011;10709;49.006;12.100;2023-04-16T12:28:28;2.80;;;2.30;;
21101;SDS011;10709;49.006;12.100;2023-04-16T12:30:59;2.80;;;2.50;;
21101;SDS011;10709;49.006;12.100;2023-04-16T12:33:26;2.37;;;2.17;;
21101;SDS011;10709;49.006;12.100;2023-04-16T12:35:53;2.53;;;2.33;;
21101;SDS011;10709;49.006;12.100;2023-04-16T12:38:20;2.17;;;1.97;;
21101;SDS011;10709;49.006;12.100;2023-04-16T12:40:49;2.33;;;2.13;;
21101;SDS011;10709;49.006;12.100;2023-04-16T12:43:16;2.40;;;2.00;;
21101;SDS011;10709;49.006;12.100;2023-04-16T12:45:43;2.57;;;2.00;;
21101;SDS011;10709;49.006;12.100;2023-04-16T12:48:09;1.93;;;1.80;;
21101;SDS011;10709;49.006;12.100;2023-04-16T12:50:36;2.47;;;2.20;;
21101;SDS011;10709;49.006;12.100;2023-04-16T12:53:04;2.70;;;2.23;;
21101;SDS011;10709;49.006;12.100;2023-04-16T12:55:31;2.77;;;2.57;;
21101;SDS011;10709;49.006;12.100;2023-04-16T12:57:58;2.63;;;2.43;;
21101;SDS011;10709;49.006;12.100;2023-04-16T13:00:24;2.90;;;2.60;;
21101;SDS011;10709;49.006;12.100;2023-04-16T13:02:51;3.47;;;2.67;;
21101;SDS011;10709;49.006;12.100;2023-04-16T13:05:18;2.90;;;2.60;;
21101;SDS011;10709;49.006;12.100;2023-04-16T13:07:44;17.67;;;10.00;;
21101;SDS011;10709;49.006;12.100;2023-04-16T13:10:11;21.17;;;11.87;;
21101;SDS011;10709;49.006;12.100;2023-04-16T13:12:38;13.63;;;7.87;;
21101;SDS011;10709;49.006;12.100;2023-04-16T13:15:04;6.00;;;4.10;;
21101;SDS011;10709;49.006;12.100;2023-04-16T13:17:31;2.60;;;2.40;;
21101;SDS011;10709;49.006;12.100;2023-04-16T13:19:58;2.60;;;2.40;;
21101;SDS011;10709;49.006;12.100;2023-04-16T13:22:24;3.00;;;2.70;;
21101;SDS011;10709;49.006;12.100;2023-04-16T13:24:51;2.50;;;2.10;;
21101;SDS011;10709;49.006;12.100;2023-04-16T13:27:17;2.30;;;2.07;;
21101;SDS011;10709;49.006;12.100;2023-04-16T13:29:44;2.60;;;2.40;;
21101;SDS011;10709;49.006;12.100;2023-04-16T13:32:11;3.07;;;2.00;;
21101;SDS011;10709;49.006;12.100;2023-04-16T13:34:39;1.83;;;1.73;;
21101;SDS011;10709;49.006;12.100;2023-04-16T13:37:05;2.67;;;2.00;;
21101;SDS011;10709;49.006;12.100;2023-04-16T13:39:32;1.97;;;1.70;;
21101;SDS011;10709;49.006;12.100;2023-04-16T13:41:58;2.00;;;1.90;;
21101;SDS011;10709;49.006;12.100;2023-04-16T13:44:25;1.90;;;1.70;;
21101;SDS011;10709;49.006;12.100;2023-04-16T13:46:51;1.90;;;1.70;;
21101;SDS011;10709;49.006;12.100;2023-04-16T13:49:18;2.50;;;2.10;;
21101;SDS011;10709;49.006;12.100;2023-04-16T13:51:44;2.27;;;1.57;;
21101;SDS011;10709;49.006;12.100;2023-04-16T13:54:11;2.03;;;1.83;;
21101;SDS011;10709;49.006;12.100;2023-04-16T13:56:38;2.73;;;1.67;;
21101;SDS011;10709;49.006;12.100;2023-04-16T13:59:05;2.23;;;2.00;;
21101;SDS011;10709;49.006;12.100;2023-04-16T14:01:31;2.83;;;2.23;;
21101;SDS011;10709;49.006;12.100;2023-04-16T14:03:59;2.63;;;2.43;;
21101;SDS011;10709;49.006;12.100;2023-04-16T14:06:31;2.90;;;2.63;;
21101;SDS011;10709;49.006;12.100;2023-04-16T14:08:58;3.57;;;2.90;;
21101;SDS011;10709;49.006;12.100;2023-04-16T14:11:25;2.60;;;2.40;;
21101;SDS011;10709;49.006;12.100;2023-04-16T14:13:51;3.20;;;2.90;;
21101;SDS011;10709;49.006;12.100;2023-04-16T14:16:18;3.23;;;2.93;;
21101;SDS011;10709;49.006;12.100;2023-04-16T14:18:45;2.17;;;1.97;;
21101;SDS011;10709;49.006;12.100;2023-04-16T14:21:12;1.70;;;1.60;;
21101;SDS011;10709;49.006;12.100;2023-04-16T14:23:38;1.13;;;1.03;;
21101;SDS011;10709;49.006;12.100;2023-04-16T14:26:05;1.17;;;1.07;;
21101;SDS011;10709;49.006;12.100;2023-04-16T14:28:31;14.43;;;1.80;;
21101;SDS011;10709;49.006;12.100;2023-04-16T14:30:58;3.80;;;1.20;;
21101;SDS011;10709;49.006;12.100;2023-04-16T14:33:24;0.90;;;0.90;;
21101;SDS011;10709;49.006;12.100;2023-04-16T14:35:51;1.00;;;0.90;;
21101;SDS011;10709;49.006;12.100;2023-04-16T14:38:18;0.80;;;0.80;;
21101;SDS011;10709;49.006;12.100;2023-04-16T14:40:44;1.27;;;0.90;;
21101;SDS011;10709;49.006;12.100;2023-04-16T14:43:11;1.10;;;1.00;;
21101;SDS011;10709;49.006;12.100;2023-04-16T14:45:37;1.60;;;1.50;;
21101;SDS011;10709;49.006;12.100;2023-04-16T14:48:04;2.37;;;2.17;;